createdAt,value
2023-01-13T00:01:16.040Z,98462.66
2023-01-13T00:03:43.072Z,98451.03
2023-01-13T00:06:13.508Z,98453.78
2023-01-13T00:08:40.159Z,98442.16
2023-01-13T00:11:06.675Z,98439.38
2023-01-13T00:13:35.350Z,98438.44
2023-01-13T00:16:06.439Z,98417.47
2023-01-13T00:18:33.972Z,98431.47
2023-01-13T00:21:06.720Z,98426.38
2023-01-13T00:23:34.865Z,98431.47
2023-01-13T00:26:10.145Z,98443.00
2023-01-13T00:28:37.289Z,98449.00
2023-01-13T00:31:09.139Z,98456.16
2023-01-13T00:33:36.229Z,98430.66
2023-01-13T00:36:05.234Z,98444.81
2023-01-13T00:38:34.275Z,98432.69
2023-01-13T00:41:05.121Z,98441.44
2023-01-13T00:45:58.256Z,98453.19
2023-01-13T00:48:27.562Z,98461.97
2023-01-13T00:51:27.595Z,98455.25
2023-01-13T00:53:54.098Z,98457.78
2023-01-13T00:56:39.193Z,98450.00
2023-01-13T00:59:06.927Z,98446.38
2023-01-13T01:01:33.590Z,98445.69
2023-01-13T01:04:00.203Z,98446.63
2023-01-13T01:06:34.481Z,98455.63
2023-01-13T01:09:01.163Z,98481.41
2023-01-13T01:11:33.007Z,98439.47
2023-01-13T01:14:02.879Z,98458.03
2023-01-13T01:16:31.513Z,98455.41
2023-01-13T01:18:59.396Z,98451.13
2023-01-13T01:21:28.137Z,98445.00
2023-01-13T01:23:55.199Z,98475.06
2023-01-13T01:26:23.956Z,98467.31
2023-01-13T01:28:51.283Z,98453.16
2023-01-13T01:31:23.167Z,98468.00
2023-01-13T01:33:49.997Z,98464.69
2023-01-13T01:36:19.365Z,98469.09
2023-01-13T01:38:46.584Z,98469.22
2023-01-13T01:41:19.377Z,98469.56
2023-01-13T01:44:02.752Z,98476.66
2023-01-13T01:46:30.853Z,98488.00
2023-01-13T01:49:10.785Z,98486.63
2023-01-13T01:51:45.904Z,98487.81
2023-01-13T01:54:17.658Z,98494.28
2023-01-13T01:56:45.418Z,98494.41
2023-01-13T01:59:12.573Z,98487.72
2023-01-13T02:01:41.041Z,98500.41
2023-01-13T02:04:16.949Z,98501.50
2023-01-13T02:06:46.811Z,98498.13
2023-01-13T02:09:17.405Z,98498.13
2023-01-13T02:12:03.225Z,98503.41
2023-01-13T02:14:30.931Z,98500.28
2023-01-13T02:17:21.493Z,98512.38
2023-01-13T02:20:18.463Z,98504.59
2023-01-13T02:23:35.943Z,98501.47
2023-01-13T02:26:27.226Z,98512.00
2023-01-13T02:29:32.099Z,98509.88
2023-01-13T02:32:16.302Z,98521.34
2023-01-13T02:34:53.406Z,98506.66
2023-01-13T02:37:29.797Z,98503.06
2023-01-13T02:40:25.056Z,98520.84
2023-01-13T02:43:35.264Z,98512.25
2023-01-13T02:46:09.445Z,98506.25
2023-01-13T02:48:38.087Z,98499.09
2023-01-13T02:51:16.062Z,98505.44
2023-01-13T02:53:50.685Z,98496.69
2023-01-13T02:56:18.024Z,98491.31
2023-01-13T02:58:46.951Z,98498.50
2023-01-13T03:01:13.630Z,98486.06
2023-01-13T03:03:40.187Z,98495.88
2023-01-13T03:06:37.599Z,98493.47
2023-01-13T03:09:16.553Z,98491.66
2023-01-13T03:12:09.600Z,98497.88
2023-01-13T03:14:41.946Z,98478.50
2023-01-13T03:17:16.820Z,98492.41
2023-01-13T03:20:06.001Z,98486.53
2023-01-13T03:22:39.692Z,98481.28
2023-01-13T03:25:18.729Z,98485.34
2023-01-13T03:28:10.926Z,98473.84
2023-01-13T03:30:44.683Z,98475.84
2023-01-13T03:33:22.482Z,98476.81
2023-01-13T03:35:55.490Z,98477.63
2023-01-13T03:38:25.210Z,98474.31
2023-01-13T03:40:57.042Z,98486.38
2023-01-13T03:43:53.187Z,98481.22
2023-01-13T03:46:46.890Z,98477.16
2023-01-13T03:49:25.531Z,98480.75
2023-01-13T03:51:57.011Z,98494.88
2023-01-13T03:54:27.739Z,98474.06
2023-01-13T03:56:59.247Z,98484.56
2023-01-13T03:59:34.288Z,98493.53
2023-01-13T04:02:03.559Z,98472.94
2023-01-13T04:04:34.707Z,98458.97
2023-01-13T04:07:15.740Z,98453.00
2023-01-13T04:09:54.452Z,98446.41
2023-01-13T04:12:51.341Z,98449.28
2023-01-13T04:15:21.077Z,98433.41
2023-01-13T04:17:47.559Z,98450.09
2023-01-13T04:20:14.612Z,98476.66
2023-01-13T04:22:41.092Z,98461.00
2023-01-13T04:25:08.295Z,98461.00
2023-01-13T04:27:35.078Z,98449.03
2023-01-13T04:30:01.527Z,98449.84
2023-01-13T04:32:28.091Z,98452.63
2023-01-13T04:34:54.522Z,98456.19
2023-01-13T04:37:21.291Z,98445.66
2023-01-13T04:39:47.744Z,98450.09
2023-01-13T04:42:14.218Z,98443.28
2023-01-13T04:44:40.657Z,98446.72
2023-01-13T04:47:07.209Z,98441.47
2023-01-13T04:49:33.711Z,98438.84
2023-01-13T04:52:00.248Z,98441.47
2023-01-13T04:54:26.705Z,98443.16
2023-01-13T04:56:53.147Z,98446.63
2023-01-13T04:59:19.579Z,98450.09
2023-01-13T05:01:46.071Z,98438.63
2023-01-13T05:04:15.356Z,98436.84
2023-01-13T05:06:41.832Z,98423.56
2023-01-13T05:09:08.308Z,98413.03
2023-01-13T05:11:53.348Z,98414.00
2023-01-13T05:14:38.116Z,98432.41
2023-01-13T05:17:04.671Z,98425.38
2023-01-13T05:19:34.484Z,98427.38
2023-01-13T05:22:21.071Z,98416.63
2023-01-13T05:25:05.828Z,98419.38
2023-01-13T05:27:32.377Z,98414.13
2023-01-13T05:29:59.094Z,98408.84
2023-01-13T05:32:28.025Z,98406.34
2023-01-13T05:34:55.835Z,98417.72
2023-01-13T05:37:23.489Z,98414.97
2023-01-13T05:40:08.804Z,98421.06
2023-01-13T05:42:54.315Z,98414.97
2023-01-13T05:45:20.827Z,98404.56
2023-01-13T05:47:47.346Z,98407.31
2023-01-13T05:50:13.890Z,98404.94
2023-01-13T05:52:40.339Z,98425.00
2023-01-13T05:55:07.347Z,98424.75
2023-01-13T05:57:33.750Z,98426.66
2023-01-13T06:00:01.336Z,98427.63
2023-01-13T06:02:28.033Z,98409.13
2023-01-13T06:04:54.500Z,98419.63
2023-01-13T06:07:20.951Z,98423.94
2023-01-13T06:09:47.347Z,98425.81
2023-01-13T06:12:14.456Z,98427.63
2023-01-13T06:14:41.067Z,98418.78
2023-01-13T06:17:13.276Z,98423.56
2023-01-13T06:19:40.344Z,98421.03
2023-01-13T06:22:18.345Z,98418.03
2023-01-13T06:24:50.297Z,98426.16
2023-01-13T06:27:17.831Z,98413.00
2023-01-13T06:29:44.508Z,98424.00
2023-01-13T06:32:18.935Z,98445.47
2023-01-13T06:34:50.865Z,98425.28
2023-01-13T06:37:21.562Z,98439.50
2023-01-13T06:39:49.114Z,98416.66
2023-01-13T06:45:15.761Z,98428.25
2023-01-13T06:47:43.413Z,98418.00
2023-01-13T06:50:10.790Z,98435.63
2023-01-13T06:52:37.251Z,98435.75
2023-01-13T06:55:04.268Z,98436.81
2023-01-13T06:57:30.815Z,98448.28
2023-01-13T06:59:57.294Z,98454.72
2023-01-13T07:02:23.919Z,98444.66
2023-01-13T07:04:50.495Z,98447.41
2023-01-13T07:07:17.174Z,98455.19
2023-01-13T07:09:43.635Z,98450.84
2023-01-13T07:12:10.248Z,98455.03
2023-01-13T07:14:55.134Z,98452.41
2023-01-13T07:17:25.450Z,98464.63
2023-01-13T07:19:52.519Z,98457.56
2023-01-13T07:22:18.953Z,98447.91
2023-01-13T07:24:45.548Z,98451.38
2023-01-13T07:27:12.134Z,98469.03
2023-01-13T07:29:38.745Z,98450.03
2023-01-13T07:32:06.864Z,98479.63
2023-01-13T07:34:33.533Z,98466.50
2023-01-13T07:37:00.521Z,98462.09
2023-01-13T07:39:27.023Z,98471.53
2023-01-13T07:42:12.093Z,98477.41
2023-01-13T07:44:38.560Z,98475.84
2023-01-13T07:47:06.050Z,98483.81
2023-01-13T07:49:33.155Z,98479.31
2023-01-13T07:51:59.663Z,98475.84
2023-01-13T07:54:39.646Z,98481.72
2023-01-13T07:57:07.177Z,98486.72
2023-01-13T07:59:33.725Z,98483.03
2023-01-13T08:02:00.509Z,98482.94
2023-01-13T08:04:27.204Z,98482.94
2023-01-13T08:06:53.733Z,98485.34
2023-01-13T08:09:20.213Z,98476.50
2023-01-13T08:12:06.623Z,98508.03
2023-01-13T08:14:33.163Z,98487.84
2023-01-13T08:16:59.677Z,98484.97
2023-01-13T08:19:26.155Z,98487.50
2023-01-13T08:21:52.610Z,98491.81
2023-01-13T08:24:19.048Z,98496.13
2023-01-13T08:26:45.487Z,98487.06
2023-01-13T08:29:14.683Z,98488.84
2023-01-13T08:31:41.381Z,98486.09
2023-01-13T08:34:07.958Z,98494.69
2023-01-13T08:36:34.460Z,98479.19
2023-01-13T08:39:00.983Z,98497.56
2023-01-13T08:41:46.353Z,98493.88
2023-01-13T08:44:12.848Z,98477.25
2023-01-13T08:46:39.450Z,98487.78
2023-01-13T08:49:05.930Z,98499.94
2023-01-13T08:51:32.367Z,98500.19
2023-01-13T08:53:58.991Z,98495.75
2023-01-13T08:56:25.377Z,98527.19
2023-01-13T08:58:51.833Z,98492.31
2023-01-13T09:01:22.598Z,98490.66
2023-01-13T09:03:49.212Z,98486.94
2023-01-13T09:06:15.827Z,98505.09
2023-01-13T09:08:43.461Z,98508.56
2023-01-13T09:11:37.414Z,98503.66
2023-01-13T09:14:04.197Z,98497.94
2023-01-13T09:16:30.638Z,98502.38
2023-01-13T09:18:57.181Z,98519.78
2023-01-13T09:21:26.734Z,98502.56
2023-01-13T09:23:53.271Z,98520.03
2023-01-13T09:26:21.556Z,98521.72
2023-01-13T09:28:48.076Z,98520.53
2023-01-13T09:31:14.777Z,98526.66
2023-01-13T09:33:59.707Z,98522.22
2023-01-13T09:36:26.248Z,98532.72
2023-01-13T09:38:52.829Z,98530.94
2023-01-13T09:41:44.120Z,98506.56
2023-01-13T09:44:18.877Z,98523.06
2023-01-13T09:46:55.987Z,98522.81
2023-01-13T09:49:34.492Z,98527.03
2023-01-13T09:52:14.998Z,98535.94
2023-01-13T09:54:51.720Z,98537.03
2023-01-13T09:57:20.138Z,98535.03
2023-01-13T09:59:47.653Z,98539.09
2023-01-13T10:02:39.672Z,98552.78
2023-01-13T10:05:12.624Z,98546.63
2023-01-13T10:07:45.337Z,98544.75
2023-01-13T10:10:18.922Z,98559.34
2023-01-13T10:13:06.383Z,98549.31
2023-01-13T10:15:32.891Z,98526.34
2023-01-13T10:18:17.878Z,98543.84
2023-01-13T10:21:11.064Z,98530.53
2023-01-13T10:23:44.073Z,98557.00
2023-01-13T10:26:21.001Z,98551.03
2023-01-13T10:28:57.548Z,98520.91
2023-01-13T10:31:25.547Z,98563.47
2023-01-13T10:34:00.210Z,98539.06
2023-01-13T10:36:27.476Z,98538.13
2023-01-13T10:39:07.160Z,98553.91
2023-01-13T10:41:36.177Z,98553.66
2023-01-13T10:44:07.720Z,98555.47
2023-01-13T10:46:50.229Z,98552.84
2023-01-13T10:49:33.105Z,98555.00
2023-01-13T10:52:01.959Z,98552.97
2023-01-13T10:54:28.925Z,98556.56
2023-01-13T10:57:14.520Z,98561.28
2023-01-13T10:59:41.049Z,98567.19
2023-01-13T11:02:25.354Z,98574.44
2023-01-13T11:04:55.717Z,98569.81
2023-01-13T11:07:50.608Z,98570.16
2023-01-13T11:10:24.601Z,98561.91
2023-01-13T11:13:11.747Z,98587.94
2023-01-13T11:16:01.363Z,98587.34
2023-01-13T11:18:36.723Z,98576.94
2023-01-13T11:21:09.517Z,98579.69
2023-01-13T11:23:42.302Z,98572.22
2023-01-13T11:26:16.397Z,98582.25
2023-01-13T11:29:11.207Z,98604.81
2023-01-13T11:31:47.273Z,98590.34
2023-01-13T11:34:22.481Z,98597.81
2023-01-13T11:36:55.394Z,98595.47
2023-01-13T11:39:47.980Z,98603.06
2023-01-13T11:42:41.339Z,98596.56
2023-01-13T11:45:40.203Z,98602.25
2023-01-13T11:48:14.682Z,98584.94
2023-01-13T11:50:58.836Z,98593.84
2023-01-13T11:53:35.477Z,98594.69
2023-01-13T11:56:29.897Z,98600.06
2023-01-13T11:58:59.344Z,98598.06
2023-01-13T12:01:50.890Z,98610.56
2023-01-13T12:04:42.710Z,98598.88
2023-01-13T12:07:36.582Z,98607.72
2023-01-13T12:10:09.909Z,98616.22
2023-01-13T12:12:54.636Z,98617.78
2023-01-13T12:15:21.737Z,98607.06
2023-01-13T12:18:06.513Z,98596.56
2023-01-13T12:21:03.874Z,98594.03
2023-01-13T12:23:55.505Z,98604.44
2023-01-13T12:26:22.670Z,98610.44
2023-01-13T12:29:01.152Z,98633.22
2023-01-13T12:31:29.296Z,98621.44
2023-01-13T12:34:04.952Z,98624.06
2023-01-13T12:36:49.571Z,98612.41
2023-01-13T12:39:37.488Z,98613.13
2023-01-13T12:42:41.662Z,98624.78
2023-01-13T12:49:04.769Z,98631.00
2023-01-13T12:51:55.735Z,98623.25
2023-01-13T12:54:37.470Z,98620.09
2023-01-13T12:57:32.543Z,98644.13
2023-01-13T13:00:04.786Z,98645.13
2023-01-13T13:02:34.295Z,98638.34
2023-01-13T13:05:23.696Z,98635.59
2023-01-13T13:08:29.189Z,98650.13
2023-01-13T13:11:28.310Z,98664.59
2023-01-13T13:13:54.731Z,98647.31
2023-01-13T13:16:27.281Z,98658.66
2023-01-13T13:19:22.433Z,98657.09
2023-01-13T13:22:14.032Z,98661.88
2023-01-13T13:25:01.283Z,98666.91
2023-01-13T13:27:31.915Z,98662.84
2023-01-13T13:30:11.470Z,98680.28
2023-01-13T13:32:49.811Z,98684.22
2023-01-13T13:35:28.218Z,98668.00
2023-01-13T13:38:50.868Z,98686.63
2023-01-13T13:41:41.195Z,98668.22
2023-01-13T13:45:06.003Z,98687.91
2023-01-13T13:47:36.861Z,98695.00
2023-01-13T13:50:16.050Z,98704.66
2023-01-13T13:52:42.706Z,98721.19
2023-01-13T13:55:24.373Z,98702.03
2023-01-13T13:57:53.877Z,98696.56
2023-01-13T14:00:39.570Z,98710.03
2023-01-13T14:03:19.784Z,98712.22
2023-01-13T14:05:56.250Z,98708.25
2023-01-13T14:08:23.029Z,98720.13
2023-01-13T14:10:49.804Z,98733.06
2023-01-13T14:13:30.799Z,98732.31
2023-01-13T14:16:01.242Z,98733.59
2023-01-13T14:18:30.643Z,98746.63
2023-01-13T14:21:00.391Z,98752.72
2023-01-13T14:23:30.100Z,98771.78
2023-01-13T14:26:08.761Z,98759.34
2023-01-13T14:28:40.214Z,98742.69
2023-01-13T14:31:09.264Z,98763.53
2023-01-13T14:33:47.441Z,98764.69
2023-01-13T14:36:17.398Z,98775.97
2023-01-13T14:39:03.460Z,98777.97
2023-01-13T14:41:45.318Z,98764.81
2023-01-13T14:44:24.370Z,98778.06
2023-01-13T14:46:51.692Z,98786.81
2023-01-13T14:49:40.233Z,98794.38
2023-01-13T14:52:14.526Z,98794.50
2023-01-13T14:54:40.904Z,98797.22
2023-01-13T14:57:27.450Z,98806.84
2023-01-13T15:00:18.673Z,98812.56
2023-01-13T15:02:57.450Z,98812.03
2023-01-13T15:05:26.824Z,98822.03
2023-01-13T15:08:00.471Z,98818.38
2023-01-13T15:10:31.016Z,98840.34
2023-01-13T15:12:59.801Z,98844.84
2023-01-13T15:15:32.644Z,98855.81
2023-01-13T15:18:05.791Z,98849.94
2023-01-13T15:20:32.150Z,98848.22
2023-01-13T15:22:59.588Z,98860.66
2023-01-13T15:25:35.279Z,98856.66
2023-01-13T15:28:02.152Z,98864.63
2023-01-13T15:30:29.846Z,98858.56
2023-01-13T15:32:57.824Z,98859.38
2023-01-13T15:35:26.744Z,98875.25
2023-01-13T15:37:55.601Z,98877.78
2023-01-13T15:40:23.685Z,98886.59
2023-01-13T15:43:09.112Z,98879.34
2023-01-13T15:45:55.904Z,98894.16
2023-01-13T15:48:24.032Z,98893.97
2023-01-13T15:50:50.666Z,98896.50
2023-01-13T15:53:17.341Z,98896.50
2023-01-13T15:55:46.579Z,98901.03
2023-01-13T15:58:13.960Z,98901.94
2023-01-13T16:00:41.605Z,98899.56
2023-01-13T16:03:15.328Z,98903.31
2023-01-13T16:05:42.490Z,98919.00
2023-01-13T16:08:20.197Z,98922.88
2023-01-13T16:10:47.309Z,98903.44
2023-01-13T16:13:14.898Z,98921.06
2023-01-13T16:15:44.570Z,98925.59
2023-01-13T16:18:17.883Z,98923.91
2023-01-13T16:20:44.614Z,98923.06
2023-01-13T16:23:11.701Z,98927.47
2023-01-13T16:25:38.919Z,98929.19
2023-01-13T16:28:05.537Z,98948.63
2023-01-13T16:30:36.890Z,98934.09
2023-01-13T16:33:03.973Z,98931.25
2023-01-13T16:35:31.985Z,98947.97
2023-01-13T16:37:59.749Z,98951.63
2023-01-13T16:40:33.213Z,98947.44
2023-01-13T16:43:01.637Z,98955.31
2023-01-13T16:45:28.092Z,98950.16
2023-01-13T16:47:54.518Z,98965.09
2023-01-13T16:50:27.480Z,98980.84
2023-01-13T16:52:53.835Z,98976.50
2023-01-13T16:55:20.289Z,98972.22
2023-01-13T16:57:46.664Z,98985.75
2023-01-13T17:00:13.666Z,98998.44
2023-01-13T17:02:40.142Z,98998.81
2023-01-13T17:05:07.315Z,99000.06
2023-01-13T17:07:34.001Z,98999.50
2023-01-13T17:10:00.495Z,98998.97
2023-01-13T17:12:27.031Z,99003.56
2023-01-13T17:14:53.612Z,99005.44
2023-01-13T17:17:24.511Z,99011.72
2023-01-13T17:19:51.814Z,99005.44
2023-01-13T17:22:19.434Z,99025.50
2023-01-13T17:24:47.506Z,99028.13
2023-01-13T17:27:17.139Z,99027.38
2023-01-13T17:29:43.524Z,99023.91
2023-01-13T17:32:15.705Z,99038.06
2023-01-13T17:34:43.194Z,99043.22
2023-01-13T17:39:57.943Z,99045.94
2023-01-13T17:42:27.716Z,99048.56
2023-01-13T17:44:54.659Z,99052.25
2023-01-13T17:47:21.035Z,99047.00
2023-01-13T17:49:47.384Z,99052.25
2023-01-13T17:52:13.792Z,99048.56
2023-01-13T17:54:42.866Z,99059.75
2023-01-13T17:57:09.878Z,99053.56
2023-01-13T17:59:36.258Z,99050.53
2023-01-13T18:02:02.877Z,99062.72
2023-01-13T18:04:30.790Z,99066.00
2023-01-13T18:06:57.288Z,99065.91
2023-01-13T18:09:23.855Z,99061.41
2023-01-13T18:11:50.475Z,99077.72
2023-01-13T18:14:17.079Z,99073.22
2023-01-13T18:16:43.751Z,99069.47
2023-01-13T18:19:29.588Z,99077.25
2023-01-13T18:22:14.417Z,99082.38
2023-01-13T18:24:59.709Z,99103.22
2023-01-13T18:27:33.006Z,99084.81
2023-01-13T18:30:00.481Z,99096.81
2023-01-13T18:32:32.796Z,99090.53
2023-01-13T18:35:06.162Z,99100.09
2023-01-13T18:37:38.669Z,99095.59
2023-01-13T18:40:05.980Z,99113.03
2023-01-13T18:42:51.047Z,99103.38
2023-01-13T18:45:24.333Z,99104.34
2023-01-13T18:47:51.077Z,99117.16
2023-01-13T18:50:19.891Z,99114.53
2023-01-13T18:52:46.475Z,99124.00
2023-01-13T18:55:13.020Z,99126.53
2023-01-13T18:57:40.344Z,99119.59
2023-01-13T19:00:11.710Z,99127.56
2023-01-13T19:02:38.373Z,99120.34
2023-01-13T19:05:05.381Z,99137.69
2023-01-13T19:07:34.673Z,99148.19
2023-01-13T19:10:01.541Z,99154.41
2023-01-13T19:12:30.856Z,99150.09
2023-01-13T19:14:58.224Z,99159.75
2023-01-13T19:17:29.964Z,99164.38
2023-01-13T19:19:58.292Z,99168.84
2023-01-13T19:22:32.573Z,99184.28
2023-01-13T19:25:00.046Z,99183.34
2023-01-13T19:27:29.248Z,99173.84
2023-01-13T19:30:00.445Z,99187.81
2023-01-13T19:32:30.588Z,99190.66
2023-01-13T19:34:59.359Z,99192.34
2023-01-13T19:37:33.688Z,99179.38
2023-01-13T19:40:00.208Z,99196.19
2023-01-13T19:42:46.291Z,99205.84
2023-01-13T19:45:26.636Z,99218.06
2023-01-13T19:47:54.541Z,99208.47
2023-01-13T19:50:20.976Z,99222.44
2023-01-13T19:52:47.578Z,99217.19
2023-01-13T19:55:14.233Z,99215.50
2023-01-13T19:57:44.856Z,99223.47
2023-01-13T20:00:25.016Z,99221.81
2023-01-13T20:06:20.368Z,99222.72
2023-01-13T20:09:00.503Z,99257.72
2023-01-13T20:11:45.761Z,99248.16
2023-01-13T20:14:12.829Z,99264.94
2023-01-13T20:16:40.380Z,99258.09
2023-01-13T20:19:06.744Z,99258.09
2023-01-13T20:21:33.527Z,99273.09
2023-01-13T20:23:59.907Z,99260.03
2023-01-13T20:26:27.508Z,99277.69
2023-01-13T20:28:53.890Z,99270.75
2023-01-13T20:31:20.478Z,99299.81
2023-01-13T20:33:49.834Z,99299.25
2023-01-13T20:36:38.806Z,99304.81
2023-01-13T20:39:08.113Z,99313.56
2023-01-13T20:41:53.475Z,99324.31
2023-01-13T20:44:19.891Z,99321.03
2023-01-13T20:46:46.761Z,99317.84
2023-01-13T20:49:15.051Z,99325.88
2023-01-13T20:51:42.615Z,99342.66
2023-01-13T20:54:09.285Z,99341.03
2023-01-13T20:56:37.323Z,99336.03
2023-01-13T20:59:04.868Z,99335.31
2023-01-13T21:01:32.174Z,99341.56
2023-01-13T21:04:00.068Z,99355.72
2023-01-13T21:06:30.183Z,99347.16
2023-01-13T21:08:56.584Z,99347.34
2023-01-13T21:11:44.143Z,99361.38
2023-01-13T21:14:40.999Z,99369.66
2023-01-13T21:17:28.472Z,99364.25
2023-01-13T21:19:55.507Z,99379.16
2023-01-13T21:22:22.185Z,99365.19
2023-01-13T21:24:48.656Z,99368.72
2023-01-13T21:27:15.187Z,99373.97
2023-01-13T21:29:41.664Z,99364.34
2023-01-13T21:32:08.076Z,99371.28
2023-01-13T21:34:35.383Z,99377.47
2023-01-13T21:37:01.904Z,99380.00
2023-01-13T21:39:28.586Z,99388.81
2023-01-13T21:42:13.528Z,99381.84
2023-01-13T21:44:58.606Z,99383.72
2023-01-13T21:47:43.822Z,99387.16
2023-01-13T21:50:13.385Z,99397.78
2023-01-13T21:52:42.607Z,99394.22
2023-01-13T21:55:17.060Z,99389.78
2023-01-13T21:57:47.831Z,99391.59
2023-01-13T22:00:15.814Z,99402.09
2023-01-13T22:02:42.590Z,99413.41
2023-01-13T22:05:11.125Z,99417.81
2023-01-13T22:07:38.998Z,99416.88
2023-01-13T22:10:07.966Z,99433.41
2023-01-13T22:12:34.490Z,99428.16
2023-01-13T22:15:00.894Z,99429.00
2023-01-13T22:17:28.517Z,99431.53
2023-01-13T22:19:58.629Z,99423.66
2023-01-13T22:22:26.320Z,99423.59
2023-01-13T22:24:53.901Z,99427.91
2023-01-13T22:27:23.925Z,99440.06
2023-01-13T22:29:52.319Z,99442.63
2023-01-13T22:32:20.297Z,99443.41
2023-01-13T22:34:48.820Z,99447.03
2023-01-13T22:37:15.257Z,99453.91
2023-01-13T22:39:42.425Z,99455.59
2023-01-13T22:42:10.118Z,99451.19
2023-01-13T22:44:36.931Z,99447.63
2023-01-13T22:47:04.598Z,99458.97
2023-01-13T22:49:31.020Z,99457.19
2023-01-13T22:51:57.600Z,99460.69
2023-01-13T22:54:23.973Z,99471.00
2023-01-13T22:56:51.294Z,99470.09
2023-01-13T22:59:17.731Z,99470.81
2023-01-13T23:01:45.394Z,99464.56
2023-01-13T23:04:15.323Z,99480.22
2023-01-13T23:06:42.981Z,99485.31
2023-01-13T23:09:09.928Z,99483.44
2023-01-13T23:11:37.484Z,99476.34
2023-01-13T23:14:06.453Z,99469.22
2023-01-13T23:16:36.956Z,99479.72
2023-01-13T23:19:04.487Z,99480.50
2023-01-13T23:21:36.005Z,99482.19
2023-01-13T23:24:04.361Z,99495.25
2023-01-13T23:26:33.545Z,99498.69
2023-01-13T23:29:02.295Z,99496.00
2023-01-13T23:31:29.256Z,99491.59
2023-01-13T23:33:55.718Z,99495.16
2023-01-13T23:36:25.454Z,99497.78
2023-01-13T23:38:52.507Z,99502.94
2023-01-13T23:41:22.931Z,99482.94
2023-01-13T23:43:54.220Z,99475.06
2023-01-13T23:46:22.144Z,99482.03
2023-01-13T23:48:49.760Z,99476.00
2023-01-13T23:51:17.015Z,99482.13
2023-01-13T23:53:46.066Z,99468.22
2023-01-13T23:56:22.584Z,99479.72
2023-01-13T23:58:49.827Z,99488.31
